Time;durP1;ratioP1;P1;durP2;ratioP2;P2;SDS_P1;SDS_P2;PMS_P1;PMS_P2;Temp;Humidity;BMP_temperature;BMP_pressure;BME280_temperature;BME280_humidity;BME280_pressure;Samples;Min_cycle;Max_cycle;Signal;HPM_P1;HPM_P2
2021/10/08 00:00:50;;;;;;;5.38;2.28;;;;;;;;;;21336005;27;20134;-59
2021/10/08 00:10:52;;;;;;;3.88;1.92;;;;;;;;;;21334463;27;20042;-59
2021/10/08 00:20:54;;;;;;;5.07;2.85;;;;;;;;;;21334732;27;20050;-59
2021/10/08 00:30:57;;;;;;;4.47;1.88;;;;;;;;;;21333533;27;20051;-59
2021/10/08 00:40:59;;;;;;;3.63;2.45;;;;;;;;;;21341008;27;20049;-59
2021/10/08 00:51:01;;;;;;;5.32;1.75;;;;;;;;;;21350690;27;20050;-59
2021/10/08 01:01:05;;;;;;;4.60;1.65;;;;;;;;;;21349445;27;20061;-59
2021/10/08 01:11:07;;;;;;;5.07;2.13;;;;;;;;;;21349855;27;20486;-59
2021/10/08 01:21:10;;;;;;;4.00;1.60;;;;;;;;;;21348371;27;20047;-59
2021/10/08 01:31:18;;;;;;;4.18;1.67;;;;;;;;;;21347878;27;20050;-59
2021/10/08 01:41:22;;;;;;;7.75;1.90;;;;;;;;;;21348032;27;20074;-59
2021/10/08 01:51:28;;;;;;;3.72;1.60;;;;;;;;;;21346702;27;20046;-59
2021/10/08 02:01:33;;;;;;;2.85;1.50;;;;;;;;;;21345152;27;20054;-59
2021/10/08 02:11:37;;;;;;;3.40;1.80;;;;;;;;;;21344392;27;20126;-57
2021/10/08 02:21:41;;;;;;;4.63;2.13;;;;;;;;;;21343959;27;20042;-58
2021/10/08 02:31:44;;;;;;;4.35;1.50;;;;;;;;;;21343900;27;20057;-58
2021/10/08 02:41:48;;;;;;;5.68;1.88;;;;;;;;;;21341999;27;20130;-58
2021/10/08 02:52:10;;;;;;;3.28;1.80;;;;;;;;;;21340695;27;20047;-58
2021/10/08 03:02:31;;;;;;;2.78;1.27;;;;;;;;;;21340262;27;20051;-58
2021/10/08 03:12:44;;;;;;;3.05;1.20;;;;;;;;;;21341024;27;20046;-59
2021/10/08 03:23:05;;;;;;;4.72;1.50;;;;;;;;;;21339222;27;20047;-58
2021/10/08 03:33:27;;;;;;;4.32;1.67;;;;;;;;;;21338089;27;20048;-59
2021/10/08 03:43:53;;;;;;;6.95;1.50;;;;;;;;;;21338359;27;20462;-57
2021/10/08 03:54:16;;;;;;;7.00;2.28;;;;;;;;;;21336088;27;20047;-56
2021/10/08 04:04:34;;;;;;;1.90;1.38;;;;;;;;;;21335016;27;20062;-60
2021/10/08 04:14:48;;;;;;;4.63;1.57;;;;;;;;;;21333461;27;20095;-59
2021/10/08 04:24:59;;;;;;;2.53;1.30;;;;;;;;;;21333914;27;20051;-59
2021/10/08 04:35:04;;;;;;;2.85;1.58;;;;;;;;;;21334824;27;20537;-59
2021/10/08 04:45:23;;;;;;;3.75;1.80;;;;;;;;;;21333331;27;20051;-60
2021/10/08 04:55:44;;;;;;;3.08;1.73;;;;;;;;;;21332757;27;20047;-61
2021/10/08 05:05:50;;;;;;;3.67;1.55;;;;;;;;;;21314176;27;20047;-60
2021/10/08 05:15:57;;;;;;;3.58;1.70;;;;;;;;;;21331656;27;20047;-60
2021/10/08 05:26:01;;;;;;;4.97;2.15;;;;;;;;;;21337398;27;20050;-59
2021/10/08 05:36:03;;;;;;;4.10;1.70;;;;;;;;;;21347509;27;20043;-60
2021/10/08 05:46:06;;;;;;;3.97;2.13;;;;;;;;;;21346844;27;20765;-58
2021/10/08 05:56:10;;;;;;;3.70;2.10;;;;;;;;;;21346245;27;20082;-59
2021/10/08 06:06:12;;;;;;;7.07;3.30;;;;;;;;;;21344553;27;20124;-60
2021/10/08 06:16:14;;;;;;;12.02;2.70;;;;;;;;;;21344179;27;20054;-59
2021/10/08 06:26:16;;;;;;;6.03;2.00;;;;;;;;;;21343242;27;20054;-59
2021/10/08 06:36:19;;;;;;;7.15;3.30;;;;;;;;;;21342244;27;20043;-59
2021/10/08 06:46:21;;;;;;;8.15;2.65;;;;;;;;;;21341806;27;20057;-60
2021/10/08 06:56:24;;;;;;;7.72;2.30;;;;;;;;;;21341261;27;20441;-60
2021/10/08 07:06:26;;;;;;;3.55;2.08;;;;;;;;;;21339976;27;20103;-59
2021/10/08 07:16:28;;;;;;;6.75;2.30;;;;;;;;;;21338793;27;20043;-60
2021/10/08 07:26:32;;;;;;;4.25;2.20;;;;;;;;;;21338127;27;20518;-58
2021/10/08 07:36:35;;;;;;;11.00;2.90;;;;;;;;;;21337374;27;20111;-61
2021/10/08 07:46:38;;;;;;;5.65;2.22;;;;;;;;;;21336525;27;20042;-61
2021/10/08 07:56:41;;;;;;;6.97;2.92;;;;;;;;;;21336104;27;20046;-61
2021/10/08 08:06:43;;;;;;;9.00;3.90;;;;;;;;;;21334874;27;20057;-62
2021/10/08 08:16:46;;;;;;;4.25;2.38;;;;;;;;;;21334831;27;20410;-59
2021/10/08 08:26:48;;;;;;;5.43;2.03;;;;;;;;;;21334097;27;20051;-60
2021/10/08 08:36:50;;;;;;;6.32;2.85;;;;;;;;;;21333661;27;20058;-60
2021/10/08 08:46:56;;;;;;;11.15;3.97;;;;;;;;;;21334209;27;20065;-59
2021/10/08 08:56:59;;;;;;;14.45;5.40;;;;;;;;;;21314215;27;20130;-59
2021/10/08 09:07:01;;;;;;;7.47;4.15;;;;;;;;;;21349594;27;20054;-60
2021/10/08 09:17:14;;;;;;;12.23;5.10;;;;;;;;;;21349743;27;20039;-60
2021/10/08 09:27:19;;;;;;;5.05;2.42;;;;;;;;;;21349491;27;20042;-59
2021/10/08 09:37:27;;;;;;;9.15;4.13;;;;;;;;;;21302678;27;20042;-57
2021/10/08 09:47:30;;;;;;;14.25;6.80;;;;;;;;;;21343189;27;20087;-57
2021/10/08 09:57:48;;;;;;;13.03;6.50;;;;;;;;;;21314903;27;20039;-57
2021/10/08 10:07:50;;;;;;;9.73;4.45;;;;;;;;;;21336958;27;20042;-58
2021/10/08 10:17:54;;;;;;;4.57;1.70;;;;;;;;;;21340816;27;20053;-58
2021/10/08 10:27:56;;;;;;;3.20;1.27;;;;;;;;;;21341499;27;20478;-58
2021/10/08 10:38:19;;;;;;;2.83;1.00;;;;;;;;;;21342040;27;20121;-58
2021/10/08 10:48:26;;;;;;;6.97;1.30;;;;;;;;;;21339858;27;20046;-58
2021/10/08 10:58:29;;;;;;;4.50;1.50;;;;;;;;;;21337971;27;20177;-56
2021/10/08 11:08:32;;;;;;;4.47;1.73;;;;;;;;;;21326910;27;20116;-57
2021/10/08 11:18:48;;;;;;;7.55;1.85;;;;;;;;;;21254733;27;20623;-59
2021/10/08 11:28:50;;;;;;;7.90;1.77;;;;;;;;;;21251647;27;20051;-59
2021/10/08 11:39:09;;;;;;;4.53;1.45;;;;;;;;;;21251056;27;20047;-59
2021/10/08 11:59:36;;;;;;;4.40;1.50;;;;;;;;;;21249162;27;20059;-60
2021/10/08 12:09:38;;;;;;;4.32;1.60;;;;;;;;;;21248238;27;20050;-60
2021/10/08 12:19:42;;;;;;;4.43;1.50;;;;;;;;;;21248436;27;20051;-59
2021/10/08 12:29:47;;;;;;;7.32;2.30;;;;;;;;;;21247842;27;20079;-59
2021/10/08 12:40:09;;;;;;;6.80;1.58;;;;;;;;;;21247697;27;20107;-59
2021/10/08 12:50:17;;;;;;;3.45;1.20;;;;;;;;;;21247950;28;20045;-57
2021/10/08 13:00:30;;;;;;;3.45;0.90;;;;;;;;;;21246218;28;20051;-60
2021/10/08 13:10:32;;;;;;;;;;;;;;;;;;21246513;28;20044;-60
2021/10/08 13:20:35;;;;;;;8.18;1.40;;;;;;;;;;21246196;27;19919;-59
2021/10/08 13:30:37;;;;;;;3.67;1.20;;;;;;;;;;21245916;27;20043;-58
2021/10/08 13:40:40;;;;;;;2.85;1.20;;;;;;;;;;21244774;28;20055;-61
2021/10/08 13:50:45;;;;;;;1.57;0.90;;;;;;;;;;21256021;27;20047;-60
2021/10/08 14:00:52;;;;;;;2.80;1.02;;;;;;;;;;21259745;27;20054;-60
2021/10/08 14:10:54;;;;;;;3.40;0.95;;;;;;;;;;21258197;27;20047;-59
2021/10/08 14:20:56;;;;;;;2.23;1.10;;;;;;;;;;21257984;27;20054;-59
2021/10/08 14:30:58;;;;;;;3.23;0.80;;;;;;;;;;21257041;27;20070;-59
2021/10/08 14:41:00;;;;;;;3.67;1.10;;;;;;;;;;21256188;27;20047;-59
2021/10/08 14:51:02;;;;;;;2.73;0.90;;;;;;;;;;21256157;27;20506;-59
2021/10/08 15:01:04;;;;;;;1.97;1.20;;;;;;;;;;21254073;27;20078;-60
2021/10/08 15:11:06;;;;;;;2.07;1.10;;;;;;;;;;21254149;27;20126;-59
2021/10/08 15:21:08;;;;;;;2.42;0.93;;;;;;;;;;21253684;27;20173;-55
2021/10/08 15:31:16;;;;;;;3.97;1.23;;;;;;;;;;21252614;27;20043;-59
2021/10/08 15:41:18;;;;;;;2.63;1.42;;;;;;;;;;21251482;27;20058;-58
2021/10/08 15:51:21;;;;;;;4.53;1.83;;;;;;;;;;21252282;27;20050;-58
2021/10/08 16:01:23;;;;;;;2.67;1.00;;;;;;;;;;21249609;27;20486;-58
2021/10/08 16:11:25;;;;;;;1.63;0.87;;;;;;;;;;21248926;27;20078;-57
2021/10/08 16:21:27;;;;;;;2.47;1.37;;;;;;;;;;21248443;27;20486;-57
2021/10/08 16:31:29;;;;;;;1.97;1.10;;;;;;;;;;21248307;27;20047;-59
2021/10/08 16:41:31;;;;;;;5.27;1.30;;;;;;;;;;21247758;27;20058;-58
2021/10/08 16:51:33;;;;;;;8.50;5.23;;;;;;;;;;21246935;27;20047;-60
2021/10/08 17:01:35;;;;;;;6.88;2.28;;;;;;;;;;21246218;27;20051;-57
2021/10/08 17:11:37;;;;;;;3.60;1.90;;;;;;;;;;21245777;28;20051;-59
2021/10/08 17:21:39;;;;;;;7.63;4.00;;;;;;;;;;21251402;27;20058;-61
2021/10/08 17:33:46;;;;;;;4.93;2.17;;;;;;;;;;21261470;27;20043;-62
2021/10/08 17:42:12;;;;;;;3.35;1.73;;;;;;;;;;21261324;27;20455;-58
2021/10/08 17:52:13;;;;;;;4.53;2.90;;;;;;;;;;21259748;27;20043;-58
2021/10/08 18:02:15;;;;;;;5.90;3.85;;;;;;;;;;21258964;27;20546;-60
2021/10/08 18:12:18;;;;;;;7.07;3.37;;;;;;;;;;21260685;27;20039;-66
2021/10/08 18:22:19;;;;;;;7.75;3.33;;;;;;;;;;21263670;27;20070;-70
2021/10/08 18:32:21;;;;;;;9.93;5.15;;;;;;;;;;21268736;27;20040;-71
2021/10/08 18:42:23;;;;;;;8.57;5.20;;;;;;;;;;21310075;27;20047;-74
2021/10/08 18:52:26;;;;;;;11.10;4.95;;;;;;;;;;21264955;27;20067;-73
2021/10/08 19:02:27;;;;;;;7.27;4.20;;;;;;;;;;21256795;27;20379;-69
2021/10/08 19:12:34;;;;;;;12.85;5.70;;;;;;;;;;21301279;27;20054;-71
2021/10/08 19:22:36;;;;;;;17.23;11.80;;;;;;;;;;21327054;27;20479;-73
2021/10/08 19:32:40;;;;;;;14.48;8.60;;;;;;;;;;21260712;27;20051;-76
2021/10/08 19:42:44;;;;;;;12.30;6.25;;;;;;;;;;21254073;27;20074;-75
2021/10/08 19:52:46;;;;;;;12.57;6.88;;;;;;;;;;21252488;27;20054;-73
2021/10/08 20:02:51;;;;;;;11.40;7.43;;;;;;;;;;21231780;27;20138;-64
2021/10/08 20:13:04;;;;;;;11.93;7.18;;;;;;;;;;21250241;27;20447;-64
2021/10/08 20:23:06;;;;;;;15.43;7.80;;;;;;;;;;21249498;27;20078;-63
2021/10/08 20:33:16;;;;;;;12.68;7.53;;;;;;;;;;21248959;27;20050;-72
2021/10/08 20:43:18;;;;;;;16.98;7.38;;;;;;;;;;21250005;27;20047;-65
2021/10/08 20:53:21;;;;;;;26.67;13.60;;;;;;;;;;21265569;27;20103;-76
2021/10/08 21:03:23;;;;;;;16.60;11.07;;;;;;;;;;21265521;27;20054;-68
2021/10/08 21:13:26;;;;;;;7.27;4.27;;;;;;;;;;21265074;27;20047;-65
2021/10/08 21:23:28;;;;;;;6.75;1.90;;;;;;;;;;21263858;27;20130;-64
2021/10/08 21:33:37;;;;;;;2.60;1.30;;;;;;;;;;21244857;27;20069;-71
2021/10/08 21:43:49;;;;;;;2.92;1.17;;;;;;;;;;21261449;27;20050;-69
2021/10/08 21:53:52;;;;;;;2.17;0.80;;;;;;;;;;21245096;27;20054;-63
2021/10/08 22:03:56;;;;;;;1.77;0.80;;;;;;;;;;21263970;27;20066;-65
2021/10/08 22:13:59;;;;;;;3.80;0.80;;;;;;;;;;21260406;27;20073;-65
2021/10/08 22:24:12;;;;;;;1.85;0.82;;;;;;;;;;21260181;27;20047;-74
2021/10/08 22:34:14;;;;;;;2.90;1.10;;;;;;;;;;21259318;27;20478;-74
2021/10/08 22:44:15;;;;;;;3.35;1.08;;;;;;;;;;21258351;27;20468;-75
2021/10/08 22:54:19;;;;;;;3.90;0.80;;;;;;;;;;21258607;27;20054;-73
2021/10/08 23:04:21;;;;;;;3.35;1.00;;;;;;;;;;21257160;27;20058;-73
2021/10/08 23:24:42;;;;;;;1.77;0.82;;;;;;;;;;21253765;27;20136;-75
2021/10/08 23:34:44;;;;;;;2.28;0.98;;;;;;;;;;21254607;27;20046;-75
2021/10/08 23:44:46;;;;;;;3.13;1.02;;;;;;;;;;21251963;27;20156;-74
2021/10/08 23:54:48;;;;;;;2.97;0.73;;;;;;;;;;21253823;27;20097;-74
